sensor_id;sensor_type;location;lat;lon;timestamp;temperature;humidity
21844;DHT22;11084;52.482;9.108;2022-07-18T00:00:32;13.60;99.90
21844;DHT22;11084;52.482;9.108;2022-07-18T00:05:25;13.50;99.90
21844;DHT22;11084;52.482;9.108;2022-07-18T00:07:51;13.40;99.90
21844;DHT22;11084;52.482;9.108;2022-07-18T00:12:43;13.30;99.90
21844;DHT22;11084;52.482;9.108;2022-07-18T00:15:09;13.20;99.90
21844;DHT22;11084;52.482;9.108;2022-07-18T00:17:37;13.20;99.90
21844;DHT22;11084;52.482;9.108;2022-07-18T00:20:06;13.20;99.90
21844;DHT22;11084;52.482;9.108;2022-07-18T00:22:34;13.10;99.90
21844;DHT22;11084;52.482;9.108;2022-07-18T00:25:00;13.10;99.90
21844;DHT22;11084;52.482;9.108;2022-07-18T00:27:26;13.10;99.90
21844;DHT22;11084;52.482;9.108;2022-07-18T00:32:18;13.00;99.90
21844;DHT22;11084;52.482;9.108;2022-07-18T00:34:44;12.80;99.90
21844;DHT22;11084;52.482;9.108;2022-07-18T00:37:10;12.80;99.90
21844;DHT22;11084;52.482;9.108;2022-07-18T00:39:39;12.60;99.90
21844;DHT22;11084;52.482;9.108;2022-07-18T00:42:05;12.70;99.90
21844;DHT22;11084;52.482;9.108;2022-07-18T00:44:31;12.50;99.90
21844;DHT22;11084;52.482;9.108;2022-07-18T00:47:00;12.50;99.90
21844;DHT22;11084;52.482;9.108;2022-07-18T00:49:27;12.50;99.90
21844;DHT22;11084;52.482;9.108;2022-07-18T00:51:54;12.50;99.90
21844;DHT22;11084;52.482;9.108;2022-07-18T00:54:20;12.50;99.90
21844;DHT22;11084;52.482;9.108;2022-07-18T00:56:47;12.50;99.90
21844;DHT22;11084;52.482;9.108;2022-07-18T00:59:15;12.50;99.90
21844;DHT22;11084;52.482;9.108;2022-07-18T01:01:42;12.50;99.90
21844;DHT22;11084;52.482;9.108;2022-07-18T01:04:10;12.50;99.90
21844;DHT22;11084;52.482;9.108;2022-07-18T01:06:48;12.50;99.90
21844;DHT22;11084;52.482;9.108;2022-07-18T01:09:16;12.50;99.90
21844;DHT22;11084;52.482;9.108;2022-07-18T01:11:44;12.50;99.90
21844;DHT22;11084;52.482;9.108;2022-07-18T01:14:11;12.50;99.90
21844;DHT22;11084;52.482;9.108;2022-07-18T01:16:38;12.50;99.90
21844;DHT22;11084;52.482;9.108;2022-07-18T01:19:06;12.50;99.90
21844;DHT22;11084;52.482;9.108;2022-07-18T01:23:59;12.40;99.90
21844;DHT22;11084;52.482;9.108;2022-07-18T01:26:25;12.40;99.90
21844;DHT22;11084;52.482;9.108;2022-07-18T01:31:17;12.40;99.90
21844;DHT22;11084;52.482;9.108;2022-07-18T01:33:43;12.30;99.90
21844;DHT22;11084;52.482;9.108;2022-07-18T01:36:09;12.30;99.90
21844;DHT22;11084;52.482;9.108;2022-07-18T01:38:36;12.30;99.90
21844;DHT22;11084;52.482;9.108;2022-07-18T01:41:04;12.30;99.90
21844;DHT22;11084;52.482;9.108;2022-07-18T01:43:31;12.20;99.90
21844;DHT22;11084;52.482;9.108;2022-07-18T01:45:58;12.20;99.90
21844;DHT22;11084;52.482;9.108;2022-07-18T01:48:24;12.20;99.90
21844;DHT22;11084;52.482;9.108;2022-07-18T01:50:51;12.20;99.90
21844;DHT22;11084;52.482;9.108;2022-07-18T01:53:18;12.20;99.90
21844;DHT22;11084;52.482;9.108;2022-07-18T01:55:44;12.10;99.90
21844;DHT22;11084;52.482;9.108;2022-07-18T01:58:10;12.00;99.90
21844;DHT22;11084;52.482;9.108;2022-07-18T02:00:36;12.00;99.90
21844;DHT22;11084;52.482;9.108;2022-07-18T02:03:02;12.00;99.90
21844;DHT22;11084;52.482;9.108;2022-07-18T02:05:28;12.00;99.90
21844;DHT22;11084;52.482;9.108;2022-07-18T02:07:54;12.00;99.90
21844;DHT22;11084;52.482;9.108;2022-07-18T02:10:21;11.90;99.90
21844;DHT22;11084;52.482;9.108;2022-07-18T02:12:48;11.90;99.90
21844;DHT22;11084;52.482;9.108;2022-07-18T02:15:15;11.90;99.90
21844;DHT22;11084;52.482;9.108;2022-07-18T02:17:42;11.90;99.90
21844;DHT22;11084;52.482;9.108;2022-07-18T02:20:11;11.90;99.90
21844;DHT22;11084;52.482;9.108;2022-07-18T02:22:38;11.90;99.90
21844;DHT22;11084;52.482;9.108;2022-07-18T02:25:06;11.90;99.90
21844;DHT22;11084;52.482;9.108;2022-07-18T02:27:32;11.90;99.90
21844;DHT22;11084;52.482;9.108;2022-07-18T02:29:58;11.90;99.90
21844;DHT22;11084;52.482;9.108;2022-07-18T02:32:25;11.90;99.90
21844;DHT22;11084;52.482;9.108;2022-07-18T02:34:51;11.90;99.90
21844;DHT22;11084;52.482;9.108;2022-07-18T02:37:17;11.90;99.90
21844;DHT22;11084;52.482;9.108;2022-07-18T02:39:43;11.80;99.90
21844;DHT22;11084;52.482;9.108;2022-07-18T02:42:10;11.90;99.90
21844;DHT22;11084;52.482;9.108;2022-07-18T02:44:36;11.90;99.90
21844;DHT22;11084;52.482;9.108;2022-07-18T02:47:03;11.80;99.90
21844;DHT22;11084;52.482;9.108;2022-07-18T02:49:29;11.80;99.90
21844;DHT22;11084;52.482;9.108;2022-07-18T02:51:59;11.80;99.90
21844;DHT22;11084;52.482;9.108;2022-07-18T02:54:28;11.80;99.90
21844;DHT22;11084;52.482;9.108;2022-07-18T02:56:56;11.80;99.90
21844;DHT22;11084;52.482;9.108;2022-07-18T02:59:22;11.80;99.90
21844;DHT22;11084;52.482;9.108;2022-07-18T03:01:48;11.70;99.90
21844;DHT22;11084;52.482;9.108;2022-07-18T03:04:15;11.70;99.90
21844;DHT22;11084;52.482;9.108;2022-07-18T03:06:42;11.70;99.90
21844;DHT22;11084;52.482;9.108;2022-07-18T03:11:36;11.70;99.90
21844;DHT22;11084;52.482;9.108;2022-07-18T03:14:02;11.70;99.90
21844;DHT22;11084;52.482;9.108;2022-07-18T03:16:28;11.70;99.90
21844;DHT22;11084;52.482;9.108;2022-07-18T03:21:23;11.60;99.90
21844;DHT22;11084;52.482;9.108;2022-07-18T03:23:49;11.50;99.90
21844;DHT22;11084;52.482;9.108;2022-07-18T03:26:15;11.50;99.90
21844;DHT22;11084;52.482;9.108;2022-07-18T03:28:43;11.40;99.90
21844;DHT22;11084;52.482;9.108;2022-07-18T03:31:09;11.50;99.90
21844;DHT22;11084;52.482;9.108;2022-07-18T03:33:35;11.40;99.90
21844;DHT22;11084;52.482;9.108;2022-07-18T03:36:04;11.40;99.90
21844;DHT22;11084;52.482;9.108;2022-07-18T03:38:31;11.40;99.90
21844;DHT22;11084;52.482;9.108;2022-07-18T03:43:23;11.40;99.90
21844;DHT22;11084;52.482;9.108;2022-07-18T03:45:49;11.40;99.90
21844;DHT22;11084;52.482;9.108;2022-07-18T03:48:15;11.40;99.90
21844;DHT22;11084;52.482;9.108;2022-07-18T03:50:41;11.40;99.90
21844;DHT22;11084;52.482;9.108;2022-07-18T03:53:07;11.40;99.90
21844;DHT22;11084;52.482;9.108;2022-07-18T03:55:34;11.40;99.90
21844;DHT22;11084;52.482;9.108;2022-07-18T03:58:00;11.40;99.90
21844;DHT22;11084;52.482;9.108;2022-07-18T04:00:26;11.50;99.90
21844;DHT22;11084;52.482;9.108;2022-07-18T04:02:52;11.50;99.90
21844;DHT22;11084;52.482;9.108;2022-07-18T04:05:18;11.50;99.90
21844;DHT22;11084;52.482;9.108;2022-07-18T04:07:44;11.60;99.90
21844;DHT22;11084;52.482;9.108;2022-07-18T04:10:11;11.60;99.90
21844;DHT22;11084;52.482;9.108;2022-07-18T04:12:45;11.60;99.90
21844;DHT22;11084;52.482;9.108;2022-07-18T04:15:16;11.80;99.90
21844;DHT22;11084;52.482;9.108;2022-07-18T04:17:42;11.90;99.90
21844;DHT22;11084;52.482;9.108;2022-07-18T04:20:10;12.00;99.90
21844;DHT22;11084;52.482;9.108;2022-07-18T04:22:57;12.20;99.90
21844;DHT22;11084;52.482;9.108;2022-07-18T04:25:26;12.30;99.90
21844;DHT22;11084;52.482;9.108;2022-07-18T04:27:54;12.50;99.90
21844;DHT22;11084;52.482;9.108;2022-07-18T04:30:23;12.70;99.90
21844;DHT22;11084;52.482;9.108;2022-07-18T04:32:50;12.70;99.90
21844;DHT22;11084;52.482;9.108;2022-07-18T04:35:20;12.90;99.90
21844;DHT22;11084;52.482;9.108;2022-07-18T04:37:48;12.90;99.90
21844;DHT22;11084;52.482;9.108;2022-07-18T04:40:15;13.00;99.90
21844;DHT22;11084;52.482;9.108;2022-07-18T04:42:41;13.10;99.90
21844;DHT22;11084;52.482;9.108;2022-07-18T04:45:08;13.30;99.90
21844;DHT22;11084;52.482;9.108;2022-07-18T04:47:35;13.40;99.90
21844;DHT22;11084;52.482;9.108;2022-07-18T04:50:01;13.40;99.90
21844;DHT22;11084;52.482;9.108;2022-07-18T04:52:38;13.60;99.90
21844;DHT22;11084;52.482;9.108;2022-07-18T04:55:09;13.70;99.90
21844;DHT22;11084;52.482;9.108;2022-07-18T04:57:38;13.80;99.90
21844;DHT22;11084;52.482;9.108;2022-07-18T05:00:09;13.80;99.90
21844;DHT22;11084;52.482;9.108;2022-07-18T05:02:45;13.90;99.90
21844;DHT22;11084;52.482;9.108;2022-07-18T05:05:15;14.10;99.90
21844;DHT22;11084;52.482;9.108;2022-07-18T05:07:43;14.30;99.90
21844;DHT22;11084;52.482;9.108;2022-07-18T05:10:12;14.60;99.90
21844;DHT22;11084;52.482;9.108;2022-07-18T05:12:43;15.00;99.90
21844;DHT22;11084;52.482;9.108;2022-07-18T05:15:14;15.40;99.90
21844;DHT22;11084;52.482;9.108;2022-07-18T05:17:42;15.80;99.90
21844;DHT22;11084;52.482;9.108;2022-07-18T05:20:14;16.20;99.90
21844;DHT22;11084;52.482;9.108;2022-07-18T05:22:42;16.60;99.90
21844;DHT22;11084;52.482;9.108;2022-07-18T05:25:10;17.00;99.90
21844;DHT22;11084;52.482;9.108;2022-07-18T05:27:37;17.30;99.90
21844;DHT22;11084;52.482;9.108;2022-07-18T05:30:06;17.50;99.90
21844;DHT22;11084;52.482;9.108;2022-07-18T05:32:34;17.80;99.90
21844;DHT22;11084;52.482;9.108;2022-07-18T05:35:00;18.00;99.90
21844;DHT22;11084;52.482;9.108;2022-07-18T05:37:26;18.20;99.90
21844;DHT22;11084;52.482;9.108;2022-07-18T05:39:52;18.50;99.90
21844;DHT22;11084;52.482;9.108;2022-07-18T05:42:18;18.70;99.90
21844;DHT22;11084;52.482;9.108;2022-07-18T05:44:45;19.10;99.90
21844;DHT22;11084;52.482;9.108;2022-07-18T05:47:12;19.40;99.90
21844;DHT22;11084;52.482;9.108;2022-07-18T05:49:39;19.70;99.90
21844;DHT22;11084;52.482;9.108;2022-07-18T05:52:06;20.00;99.90
21844;DHT22;11084;52.482;9.108;2022-07-18T05:54:32;20.20;99.70
21844;DHT22;11084;52.482;9.108;2022-07-18T05:56:58;20.60;98.90
21844;DHT22;11084;52.482;9.108;2022-07-18T05:59:24;20.90;98.20
21844;DHT22;11084;52.482;9.108;2022-07-18T06:01:50;21.10;97.10
21844;DHT22;11084;52.482;9.108;2022-07-18T06:04:16;21.10;96.50
21844;DHT22;11084;52.482;9.108;2022-07-18T06:06:42;21.20;96.30
21844;DHT22;11084;52.482;9.108;2022-07-18T06:09:08;21.20;95.80
21844;DHT22;11084;52.482;9.108;2022-07-18T06:11:35;21.30;95.30
21844;DHT22;11084;52.482;9.108;2022-07-18T06:14:01;21.30;94.80
21844;DHT22;11084;52.482;9.108;2022-07-18T06:16:29;21.30;94.50
21844;DHT22;11084;52.482;9.108;2022-07-18T06:18:56;21.40;94.20
21844;DHT22;11084;52.482;9.108;2022-07-18T06:21:23;21.50;94.00
21844;DHT22;11084;52.482;9.108;2022-07-18T06:23:49;21.80;93.60
21844;DHT22;11084;52.482;9.108;2022-07-18T06:26:15;22.00;93.20
21844;DHT22;11084;52.482;9.108;2022-07-18T06:28:42;22.10;92.70
21844;DHT22;11084;52.482;9.108;2022-07-18T06:31:08;22.30;92.40
21844;DHT22;11084;52.482;9.108;2022-07-18T06:33:34;22.60;91.90
21844;DHT22;11084;52.482;9.108;2022-07-18T06:36:00;22.90;91.10
21844;DHT22;11084;52.482;9.108;2022-07-18T06:38:26;23.10;90.50
21844;DHT22;11084;52.482;9.108;2022-07-18T06:40:52;23.20;90.40
21844;DHT22;11084;52.482;9.108;2022-07-18T06:43:18;23.30;90.20
21844;DHT22;11084;52.482;9.108;2022-07-18T06:45:48;23.30;89.50
21844;DHT22;11084;52.482;9.108;2022-07-18T06:48:15;23.40;88.90
21844;DHT22;11084;52.482;9.108;2022-07-18T06:50:42;23.60;88.30
21844;DHT22;11084;52.482;9.108;2022-07-18T06:53:08;23.70;87.30
21844;DHT22;11084;52.482;9.108;2022-07-18T06:55:34;24.00;87.00
21844;DHT22;11084;52.482;9.108;2022-07-18T06:58:00;24.10;85.10
21844;DHT22;11084;52.482;9.108;2022-07-18T07:00:26;24.30;84.00
21844;DHT22;11084;52.482;9.108;2022-07-18T07:02:52;24.50;83.20
21844;DHT22;11084;52.482;9.108;2022-07-18T07:05:20;24.80;82.90
21844;DHT22;11084;52.482;9.108;2022-07-18T07:07:47;25.10;81.10
21844;DHT22;11084;52.482;9.108;2022-07-18T07:10:14;25.40;79.40
21844;DHT22;11084;52.482;9.108;2022-07-18T07:12:51;25.60;77.20
21844;DHT22;11084;52.482;9.108;2022-07-18T07:15:19;25.90;74.40
21844;DHT22;11084;52.482;9.108;2022-07-18T07:17:48;26.20;75.20
21844;DHT22;11084;52.482;9.108;2022-07-18T07:20:15;26.30;73.20
21844;DHT22;11084;52.482;9.108;2022-07-18T07:22:45;26.50;71.90
21844;DHT22;11084;52.482;9.108;2022-07-18T07:25:15;26.70;71.20
21844;DHT22;11084;52.482;9.108;2022-07-18T07:27:42;26.80;70.50
21844;DHT22;11084;52.482;9.108;2022-07-18T07:30:09;27.00;69.90
21844;DHT22;11084;52.482;9.108;2022-07-18T07:32:37;27.20;68.60
21844;DHT22;11084;52.482;9.108;2022-07-18T07:35:05;27.50;67.90
21844;DHT22;11084;52.482;9.108;2022-07-18T07:37:39;28.00;66.60
21844;DHT22;11084;52.482;9.108;2022-07-18T07:40:06;28.60;65.50
21844;DHT22;11084;52.482;9.108;2022-07-18T07:42:33;28.90;63.70
21844;DHT22;11084;52.482;9.108;2022-07-18T07:44:59;29.10;63.00
21844;DHT22;11084;52.482;9.108;2022-07-18T07:47:25;29.20;61.90
21844;DHT22;11084;52.482;9.108;2022-07-18T07:49:51;29.30;61.40
21844;DHT22;11084;52.482;9.108;2022-07-18T07:52:21;29.30;60.60
21844;DHT22;11084;52.482;9.108;2022-07-18T07:54:49;29.40;58.30
21844;DHT22;11084;52.482;9.108;2022-07-18T07:57:18;29.50;58.80
21844;DHT22;11084;52.482;9.108;2022-07-18T07:59:44;29.60;59.00
21844;DHT22;11084;52.482;9.108;2022-07-18T08:02:10;29.70;58.90
21844;DHT22;11084;52.482;9.108;2022-07-18T08:04:36;29.80;57.40
21844;DHT22;11084;52.482;9.108;2022-07-18T08:07:03;29.80;57.40
21844;DHT22;11084;52.482;9.108;2022-07-18T08:09:29;29.90;57.30
21844;DHT22;11084;52.482;9.108;2022-07-18T08:11:55;30.10;56.60
21844;DHT22;11084;52.482;9.108;2022-07-18T08:14:21;30.40;56.00
21844;DHT22;11084;52.482;9.108;2022-07-18T08:16:47;30.90;55.20
21844;DHT22;11084;52.482;9.108;2022-07-18T08:19:13;31.20;53.80
21844;DHT22;11084;52.482;9.108;2022-07-18T08:29:05;32.30;48.20
21844;DHT22;11084;52.482;9.108;2022-07-18T08:31:32;32.70;49.80
21844;DHT22;11084;52.482;9.108;2022-07-18T08:33:59;32.90;47.50
21844;DHT22;11084;52.482;9.108;2022-07-18T08:36:25;33.10;48.20
21844;DHT22;11084;52.482;9.108;2022-07-18T08:38:51;33.10;48.60
21844;DHT22;11084;52.482;9.108;2022-07-18T08:41:22;33.30;45.30
21844;DHT22;11084;52.482;9.108;2022-07-18T08:43:50;33.50;47.50
21844;DHT22;11084;52.482;9.108;2022-07-18T08:46:20;33.50;48.00
21844;DHT22;11084;52.482;9.108;2022-07-18T08:48:48;33.80;46.80
21844;DHT22;11084;52.482;9.108;2022-07-18T08:51:15;34.00;44.60
21844;DHT22;11084;52.482;9.108;2022-07-18T08:53:41;34.10;46.90
21844;DHT22;11084;52.482;9.108;2022-07-18T08:56:07;34.30;45.00
21844;DHT22;11084;52.482;9.108;2022-07-18T08:58:36;34.20;45.40
21844;DHT22;11084;52.482;9.108;2022-07-18T09:01:02;34.40;44.40
21844;DHT22;11084;52.482;9.108;2022-07-18T09:03:28;34.50;43.80
21844;DHT22;11084;52.482;9.108;2022-07-18T09:06:10;34.70;43.60
21844;DHT22;11084;52.482;9.108;2022-07-18T09:08:59;34.90;43.10
21844;DHT22;11084;52.482;9.108;2022-07-18T09:11:26;34.90;41.60
21844;DHT22;11084;52.482;9.108;2022-07-18T09:13:52;35.10;43.10
21844;DHT22;11084;52.482;9.108;2022-07-18T09:16:18;35.10;43.20
21844;DHT22;11084;52.482;9.108;2022-07-18T09:18:47;35.10;39.80
21844;DHT22;11084;52.482;9.108;2022-07-18T09:21:19;35.20;42.20
21844;DHT22;11084;52.482;9.108;2022-07-18T09:23:48;35.40;41.80
21844;DHT22;11084;52.482;9.108;2022-07-18T09:26:37;35.40;41.60
21844;DHT22;11084;52.482;9.108;2022-07-18T09:29:05;35.50;39.50
21844;DHT22;11084;52.482;9.108;2022-07-18T09:31:31;35.50;40.50
21844;DHT22;11084;52.482;9.108;2022-07-18T09:34:04;35.60;40.00
21844;DHT22;11084;52.482;9.108;2022-07-18T09:36:31;35.70;38.80
21844;DHT22;11084;52.482;9.108;2022-07-18T09:39:19;35.80;38.30
21844;DHT22;11084;52.482;9.108;2022-07-18T09:41:45;35.80;38.40
21844;DHT22;11084;52.482;9.108;2022-07-18T09:44:18;35.90;38.90
21844;DHT22;11084;52.482;9.108;2022-07-18T09:47:03;35.80;37.00
21844;DHT22;11084;52.482;9.108;2022-07-18T09:49:33;35.90;38.10
21844;DHT22;11084;52.482;9.108;2022-07-18T09:52:08;36.00;37.80
21844;DHT22;11084;52.482;9.108;2022-07-18T09:54:44;36.10;36.50
21844;DHT22;11084;52.482;9.108;2022-07-18T09:57:22;36.20;37.40
21844;DHT22;11084;52.482;9.108;2022-07-18T09:59:49;36.30;37.50
21844;DHT22;11084;52.482;9.108;2022-07-18T10:02:16;36.20;34.90
21844;DHT22;11084;52.482;9.108;2022-07-18T10:04:44;36.30;36.50
21844;DHT22;11084;52.482;9.108;2022-07-18T10:07:10;36.30;37.00
21844;DHT22;11084;52.482;9.108;2022-07-18T10:09:38;36.40;36.60
21844;DHT22;11084;52.482;9.108;2022-07-18T10:12:05;36.60;36.70
21844;DHT22;11084;52.482;9.108;2022-07-18T10:14:32;36.60;35.70
21844;DHT22;11084;52.482;9.108;2022-07-18T10:16:59;36.50;35.70
21844;DHT22;11084;52.482;9.108;2022-07-18T10:19:26;36.60;35.50
21844;DHT22;11084;52.482;9.108;2022-07-18T10:21:53;36.70;35.80
21844;DHT22;11084;52.482;9.108;2022-07-18T10:24:20;36.90;35.90
21844;DHT22;11084;52.482;9.108;2022-07-18T10:30:51;36.90;33.40
21844;DHT22;11084;52.482;9.108;2022-07-18T10:33:39;36.80;33.30
21844;DHT22;11084;52.482;9.108;2022-07-18T10:36:09;36.70;33.00
21844;DHT22;11084;52.482;9.108;2022-07-18T10:38:36;36.70;34.40
21844;DHT22;11084;52.482;9.108;2022-07-18T10:41:11;36.60;35.00
21844;DHT22;11084;52.482;9.108;2022-07-18T10:43:41;36.80;34.80
21844;DHT22;11084;52.482;9.108;2022-07-18T10:46:11;36.90;35.20
21844;DHT22;11084;52.482;9.108;2022-07-18T10:53:57;36.90;35.10
21844;DHT22;11084;52.482;9.108;2022-07-18T10:59:15;37.00;34.10
21844;DHT22;11084;52.482;9.108;2022-07-18T11:01:50;37.10;32.90
21844;DHT22;11084;52.482;9.108;2022-07-18T11:04:29;37.20;33.40
21844;DHT22;11084;52.482;9.108;2022-07-18T11:07:15;37.20;33.30
21844;DHT22;11084;52.482;9.108;2022-07-18T11:09:46;37.30;32.40
21844;DHT22;11084;52.482;9.108;2022-07-18T11:12:30;37.30;33.70
21844;DHT22;11084;52.482;9.108;2022-07-18T11:15:11;37.40;33.70
21844;DHT22;11084;52.482;9.108;2022-07-18T11:18:02;37.30;31.80
21844;DHT22;11084;52.482;9.108;2022-07-18T11:20:41;37.30;32.20
21844;DHT22;11084;52.482;9.108;2022-07-18T11:25:50;37.20;33.10
21844;DHT22;11084;52.482;9.108;2022-07-18T11:28:24;37.20;34.00
21844;DHT22;11084;52.482;9.108;2022-07-18T11:31:10;37.30;34.20
21844;DHT22;11084;52.482;9.108;2022-07-18T11:33:40;37.30;33.60
21844;DHT22;11084;52.482;9.108;2022-07-18T11:36:12;37.40;33.80
21844;DHT22;11084;52.482;9.108;2022-07-18T11:38:49;37.40;33.40
21844;DHT22;11084;52.482;9.108;2022-07-18T11:41:17;37.40;33.00
21844;DHT22;11084;52.482;9.108;2022-07-18T11:43:46;37.30;33.50
21844;DHT22;11084;52.482;9.108;2022-07-18T11:46:15;37.30;33.70
21844;DHT22;11084;52.482;9.108;2022-07-18T11:48:46;37.40;33.70
21844;DHT22;11084;52.482;9.108;2022-07-18T11:51:19;37.50;33.40
21844;DHT22;11084;52.482;9.108;2022-07-18T11:53:47;37.60;32.90
21844;DHT22;11084;52.482;9.108;2022-07-18T11:56:15;37.70;33.10
21844;DHT22;11084;52.482;9.108;2022-07-18T11:58:43;37.80;33.40
21844;DHT22;11084;52.482;9.108;2022-07-18T12:01:11;37.90;33.10
21844;DHT22;11084;52.482;9.108;2022-07-18T12:03:48;37.90;33.90
21844;DHT22;11084;52.482;9.108;2022-07-18T12:06:21;37.90;32.70
21844;DHT22;11084;52.482;9.108;2022-07-18T12:08:56;38.00;32.40
21844;DHT22;11084;52.482;9.108;2022-07-18T12:11:28;38.00;32.40
21844;DHT22;11084;52.482;9.108;2022-07-18T12:16:48;38.10;31.90
21844;DHT22;11084;52.482;9.108;2022-07-18T12:19:20;37.90;32.20
21844;DHT22;11084;52.482;9.108;2022-07-18T12:21:56;38.00;32.50
21844;DHT22;11084;52.482;9.108;2022-07-18T12:24:31;38.10;32.90
21844;DHT22;11084;52.482;9.108;2022-07-18T12:30:08;38.30;33.00
21844;DHT22;11084;52.482;9.108;2022-07-18T12:35:32;38.40;32.40
21844;DHT22;11084;52.482;9.108;2022-07-18T12:38:06;38.40;32.00
21844;DHT22;11084;52.482;9.108;2022-07-18T12:41:01;38.40;32.30
21844;DHT22;11084;52.482;9.108;2022-07-18T12:45:57;38.60;32.70
21844;DHT22;11084;52.482;9.108;2022-07-18T12:48:24;38.60;32.70
21844;DHT22;11084;52.482;9.108;2022-07-18T12:50:56;38.60;32.60
21844;DHT22;11084;52.482;9.108;2022-07-18T12:53:24;38.70;32.20
21844;DHT22;11084;52.482;9.108;2022-07-18T12:55:50;38.60;31.90
21844;DHT22;11084;52.482;9.108;2022-07-18T12:58:17;38.60;32.10
21844;DHT22;11084;52.482;9.108;2022-07-18T13:00:43;38.50;32.40
21844;DHT22;11084;52.482;9.108;2022-07-18T13:03:09;38.50;32.90
21844;DHT22;11084;52.482;9.108;2022-07-18T13:05:35;38.50;32.90
21844;DHT22;11084;52.482;9.108;2022-07-18T13:08:02;38.50;32.50
21844;DHT22;11084;52.482;9.108;2022-07-18T13:10:28;38.40;31.80
21844;DHT22;11084;52.482;9.108;2022-07-18T13:12:54;38.30;31.70
21844;DHT22;11084;52.482;9.108;2022-07-18T13:15:21;38.20;32.30
21844;DHT22;11084;52.482;9.108;2022-07-18T13:17:48;38.20;31.80
21844;DHT22;11084;52.482;9.108;2022-07-18T13:20:15;38.10;31.80
21844;DHT22;11084;52.482;9.108;2022-07-18T13:22:42;38.10;31.80
21844;DHT22;11084;52.482;9.108;2022-07-18T13:25:09;38.10;32.10
21844;DHT22;11084;52.482;9.108;2022-07-18T13:27:37;38.00;31.80
21844;DHT22;11084;52.482;9.108;2022-07-18T13:30:05;37.90;32.00
21844;DHT22;11084;52.482;9.108;2022-07-18T13:32:33;37.90;32.30
21844;DHT22;11084;52.482;9.108;2022-07-18T13:34:59;37.90;32.20
21844;DHT22;11084;52.482;9.108;2022-07-18T13:37:25;37.90;33.00
21844;DHT22;11084;52.482;9.108;2022-07-18T13:39:51;37.80;32.30
21844;DHT22;11084;52.482;9.108;2022-07-18T13:42:17;37.70;32.00
21844;DHT22;11084;52.482;9.108;2022-07-18T13:44:44;37.60;32.40
21844;DHT22;11084;52.482;9.108;2022-07-18T13:47:14;37.50;32.90
21844;DHT22;11084;52.482;9.108;2022-07-18T13:49:40;37.50;33.30
21844;DHT22;11084;52.482;9.108;2022-07-18T13:52:06;37.40;33.10
21844;DHT22;11084;52.482;9.108;2022-07-18T13:54:34;37.30;33.00
21844;DHT22;11084;52.482;9.108;2022-07-18T13:57:00;37.40;33.40
21844;DHT22;11084;52.482;9.108;2022-07-18T13:59:26;37.50;33.80
21844;DHT22;11084;52.482;9.108;2022-07-18T14:01:52;37.50;33.50
21844;DHT22;11084;52.482;9.108;2022-07-18T14:04:18;37.50;33.10
21844;DHT22;11084;52.482;9.108;2022-07-18T14:06:45;37.40;33.10
21844;DHT22;11084;52.482;9.108;2022-07-18T14:09:12;37.40;33.00
21844;DHT22;11084;52.482;9.108;2022-07-18T14:11:39;37.30;32.60
21844;DHT22;11084;52.482;9.108;2022-07-18T14:14:06;37.10;32.90
21844;DHT22;11084;52.482;9.108;2022-07-18T14:16:32;37.00;32.90
21844;DHT22;11084;52.482;9.108;2022-07-18T14:18:59;36.90;33.30
21844;DHT22;11084;52.482;9.108;2022-07-18T14:21:26;36.80;33.40
21844;DHT22;11084;52.482;9.108;2022-07-18T14:23:52;36.80;33.60
21844;DHT22;11084;52.482;9.108;2022-07-18T14:26:18;36.80;33.70
21844;DHT22;11084;52.482;9.108;2022-07-18T14:28:44;36.80;33.70
21844;DHT22;11084;52.482;9.108;2022-07-18T14:31:10;36.80;34.00
21844;DHT22;11084;52.482;9.108;2022-07-18T14:33:36;36.90;33.90
21844;DHT22;11084;52.482;9.108;2022-07-18T14:36:02;36.90;33.30
21844;DHT22;11084;52.482;9.108;2022-07-18T14:38:30;37.00;33.40
21844;DHT22;11084;52.482;9.108;2022-07-18T14:40:56;37.10;33.20
21844;DHT22;11084;52.482;9.108;2022-07-18T14:43:23;37.10;32.90
21844;DHT22;11084;52.482;9.108;2022-07-18T14:45:49;37.20;32.80
21844;DHT22;11084;52.482;9.108;2022-07-18T14:48:15;37.30;32.60
21844;DHT22;11084;52.482;9.108;2022-07-18T14:50:41;37.40;32.50
21844;DHT22;11084;52.482;9.108;2022-07-18T14:53:07;37.50;32.60
21844;DHT22;11084;52.482;9.108;2022-07-18T14:55:33;37.40;32.40
21844;DHT22;11084;52.482;9.108;2022-07-18T14:57:59;37.40;32.90
21844;DHT22;11084;52.482;9.108;2022-07-18T15:00:25;37.50;32.60
21844;DHT22;11084;52.482;9.108;2022-07-18T15:02:52;37.50;32.10
21844;DHT22;11084;52.482;9.108;2022-07-18T15:05:18;37.40;32.50
21844;DHT22;11084;52.482;9.108;2022-07-18T15:07:44;37.30;32.90
21844;DHT22;11084;52.482;9.108;2022-07-18T15:10:10;37.30;32.90
21844;DHT22;11084;52.482;9.108;2022-07-18T15:12:38;37.40;33.10
21844;DHT22;11084;52.482;9.108;2022-07-18T15:15:05;37.30;33.00
21844;DHT22;11084;52.482;9.108;2022-07-18T15:17:33;37.30;32.70
21844;DHT22;11084;52.482;9.108;2022-07-18T15:19:59;37.30;32.80
21844;DHT22;11084;52.482;9.108;2022-07-18T15:22:25;37.30;33.10
21844;DHT22;11084;52.482;9.108;2022-07-18T15:24:52;37.30;32.80
21844;DHT22;11084;52.482;9.108;2022-07-18T15:27:18;37.20;33.20
21844;DHT22;11084;52.482;9.108;2022-07-18T15:29:44;37.30;32.80
21844;DHT22;11084;52.482;9.108;2022-07-18T15:32:10;37.30;33.00
21844;DHT22;11084;52.482;9.108;2022-07-18T15:34:38;37.30;32.50
21844;DHT22;11084;52.482;9.108;2022-07-18T15:37:05;37.30;32.90
21844;DHT22;11084;52.482;9.108;2022-07-18T15:39:32;37.30;33.20
21844;DHT22;11084;52.482;9.108;2022-07-18T15:41:59;37.30;32.90
21844;DHT22;11084;52.482;9.108;2022-07-18T15:44:25;37.30;33.00
21844;DHT22;11084;52.482;9.108;2022-07-18T15:46:53;37.30;33.10
21844;DHT22;11084;52.482;9.108;2022-07-18T15:49:20;37.30;32.90
21844;DHT22;11084;52.482;9.108;2022-07-18T15:51:46;37.30;33.10
21844;DHT22;11084;52.482;9.108;2022-07-18T15:54:14;37.30;32.90
21844;DHT22;11084;52.482;9.108;2022-07-18T15:56:42;37.20;33.20
21844;DHT22;11084;52.482;9.108;2022-07-18T15:59:08;37.30;33.10
21844;DHT22;11084;52.482;9.108;2022-07-18T16:01:34;37.30;33.10
21844;DHT22;11084;52.482;9.108;2022-07-18T16:04:01;37.30;33.40
21844;DHT22;11084;52.482;9.108;2022-07-18T16:06:27;37.30;32.90
21844;DHT22;11084;52.482;9.108;2022-07-18T16:08:53;37.20;32.90
21844;DHT22;11084;52.482;9.108;2022-07-18T16:11:19;37.20;33.00
21844;DHT22;11084;52.482;9.108;2022-07-18T16:13:46;37.00;32.90
21844;DHT22;11084;52.482;9.108;2022-07-18T16:16:12;37.00;33.40
21844;DHT22;11084;52.482;9.108;2022-07-18T16:18:39;37.00;33.30
21844;DHT22;11084;52.482;9.108;2022-07-18T16:21:05;36.80;33.20
21844;DHT22;11084;52.482;9.108;2022-07-18T16:23:31;36.80;32.90
21844;DHT22;11084;52.482;9.108;2022-07-18T16:25:57;36.70;33.00
21844;DHT22;11084;52.482;9.108;2022-07-18T16:28:23;36.70;33.10